<?xml version="1.0" encoding="UTF-8"?>
<gpx xmlns="http://www.topografix.com/GPX/1/1" xmlns:xsi="http://www.w3.org/2001/XMLSchema-instance" version="1.1" xsi:schemaLocation="http://www.topografix.com/GPX/1/1 http://www.topografix.com/GPX/1/1/gpx.xsd">
  <metadata>
    <name>Cotswolds Lake 62 Standard Aquabike 2022</name>
  </metadata>
  <trk>
    <name>Cotswolds Lake 62 Standard Aquabike 2022</name>
    <trkseg>
      <trkpt lat="51.656451" lon="-1.940131">
        <ele>85.963879</ele>
        <time>2021-09-11T09:15:00.000Z</time>
      </trkpt>
      <trkpt lat="51.656479" lon="-1.94016">
        <ele>85.963867</ele>
        <time>2021-09-11T09:15:00.000Z</time>
      </trkpt>
      <trkpt lat="51.657049" lon="-1.940419">
        <ele>85.963877</ele>
        <time>2021-09-11T09:15:07.000Z</time>
      </trkpt>
      <trkpt lat="51.65764" lon="-1.940835">
        <ele>86.197376</ele>
        <time>2021-09-11T09:15:14.000Z</time>
      </trkpt>
      <trkpt lat="51.658249" lon="-1.941354">
        <ele>86.630159</ele>
        <time>2021-09-11T09:15:22.000Z</time>
      </trkpt>
      <trkpt lat="51.658441" lon="-1.941512">
        <ele>86.770526</ele>
        <time>2021-09-11T09:15:24.000Z</time>
      </trkpt>
      <trkpt lat="51.659047" lon="-1.942047">
        <ele>87.315615</ele>
        <time>2021-09-11T09:15:32.000Z</time>
      </trkpt>
      <trkpt lat="51.659527" lon="-1.942231">
        <ele>87.971035</ele>
        <time>2021-09-11T09:15:37.000Z</time>
      </trkpt>
      <trkpt lat="51.660163" lon="-1.942266">
        <ele>88.806002</ele>
        <time>2021-09-11T09:15:44.000Z</time>
      </trkpt>
      <trkpt lat="51.660646" lon="-1.94214">
        <ele>89.449228</ele>
        <time>2021-09-11T09:15:49.000Z</time>
      </trkpt>
      <trkpt lat="51.661346" lon="-1.94149">
        <ele>90.300048</ele>
        <time>2021-09-11T09:15:58.000Z</time>
      </trkpt>
      <trkpt lat="51.66177" lon="-1.941513">
        <ele>90.734054</ele>
        <time>2021-09-11T09:16:03.000Z</time>
      </trkpt>
      <trkpt lat="51.662743" lon="-1.941516">
        <ele>91.466244</ele>
        <time>2021-09-11T09:16:14.000Z</time>
      </trkpt>
      <trkpt lat="51.665098" lon="-1.942202">
        <ele>92.317609</ele>
        <time>2021-09-11T09:16:41.000Z</time>
      </trkpt>
      <trkpt lat="51.66635" lon="-1.942231">
        <ele>92.795202</ele>
        <time>2021-09-11T09:16:55.000Z</time>
      </trkpt>
      <trkpt lat="51.666936" lon="-1.942141">
        <ele>93.08967</ele>
        <time>2021-09-11T09:17:02.000Z</time>
      </trkpt>
      <trkpt lat="51.667987" lon="-1.94186">
        <ele>93.546848</ele>
        <time>2021-09-11T09:17:14.000Z</time>
      </trkpt>
      <trkpt lat="51.668475" lon="-1.942029">
        <ele>93.663758</ele>
        <time>2021-09-11T09:17:20.000Z</time>
      </trkpt>
      <trkpt lat="51.668941" lon="-1.942356">
        <ele>93.780072</ele>
        <time>2021-09-11T09:17:26.000Z</time>
      </trkpt>
      <trkpt lat="51.669897" lon="-1.942453">
        <ele>93.67416</ele>
        <time>2021-09-11T09:17:37.000Z</time>
      </trkpt>
      <trkpt lat="51.66994" lon="-1.942466">
        <ele>93.648631</ele>
        <time>2021-09-11T09:17:37.000Z</time>
      </trkpt>
      <trkpt lat="51.671778" lon="-1.94383">
        <ele>92.839065</ele>
        <time>2021-09-11T09:17:59.000Z</time>
      </trkpt>
      <trkpt lat="51.67329" lon="-1.944973">
        <ele>92.706535</ele>
        <time>2021-09-11T09:18:18.000Z</time>
      </trkpt>
      <trkpt lat="51.675747" lon="-1.94616">
        <ele>93.625205</ele>
        <time>2021-09-11T09:18:47.000Z</time>
      </trkpt>
      <trkpt lat="51.677646" lon="-1.947194">
        <ele>94.60465</ele>
        <time>2021-09-11T09:19:09.000Z</time>
      </trkpt>
      <trkpt lat="51.678713" lon="-1.947922">
        <ele>95.294092</ele>
        <time>2021-09-11T09:19:22.000Z</time>
      </trkpt>
      <trkpt lat="51.679288" lon="-1.948087">
        <ele>95.646934</ele>
        <time>2021-09-11T09:19:28.000Z</time>
      </trkpt>
      <trkpt lat="51.679771" lon="-1.948218">
        <ele>96.013473</ele>
        <time>2021-09-11T09:19:33.000Z</time>
      </trkpt>
      <trkpt lat="51.681342" lon="-1.949054">
        <ele>97.536005</ele>
        <time>2021-09-11T09:19:51.000Z</time>
      </trkpt>
      <trkpt lat="51.682136" lon="-1.949579">
        <ele>98.118991</ele>
        <time>2021-09-11T09:20:01.000Z</time>
      </trkpt>
      <trkpt lat="51.683093" lon="-1.95019">
        <ele>98.72358</ele>
        <time>2021-09-11T09:20:12.000Z</time>
      </trkpt>
      <trkpt lat="51.684192" lon="-1.951041">
        <ele>98.764058</ele>
        <time>2021-09-11T09:20:26.000Z</time>
      </trkpt>
      <trkpt lat="51.685301" lon="-1.95176">
        <ele>98.547057</ele>
        <time>2021-09-11T09:20:39.000Z</time>
      </trkpt>
      <trkpt lat="51.687071" lon="-1.953293">
        <ele>98.029535</ele>
        <time>2021-09-11T09:21:01.000Z</time>
      </trkpt>
      <trkpt lat="51.688115" lon="-1.95442">
        <ele>97.965094</ele>
        <time>2021-09-11T09:21:15.000Z</time>
      </trkpt>
      <trkpt lat="51.688529" lon="-1.954574">
        <ele>98.071282</ele>
        <time>2021-09-11T09:21:20.000Z</time>
      </trkpt>
      <trkpt lat="51.689361" lon="-1.954554">
        <ele>98.279799</ele>
        <time>2021-09-11T09:21:29.000Z</time>
      </trkpt>
      <trkpt lat="51.690312" lon="-1.954236">
        <ele>98.968675</ele>
        <time>2021-09-11T09:21:40.000Z</time>
      </trkpt>
      <trkpt lat="51.691976" lon="-1.953536">
        <ele>100.283694</ele>
        <time>2021-09-11T09:21:59.000Z</time>
      </trkpt>
      <trkpt lat="51.692201" lon="-1.953445">
        <ele>100.46248</ele>
        <time>2021-09-11T09:22:02.000Z</time>
      </trkpt>
      <trkpt lat="51.692431" lon="-1.953323">
        <ele>100.657708</ele>
        <time>2021-09-11T09:22:05.000Z</time>
      </trkpt>
      <trkpt lat="51.693752" lon="-1.952614">
        <ele>101.508431</ele>
        <time>2021-09-11T09:22:20.000Z</time>
      </trkpt>
      <trkpt lat="51.693803" lon="-1.952602">
        <ele>101.529093</ele>
        <time>2021-09-11T09:22:21.000Z</time>
      </trkpt>
      <trkpt lat="51.694183" lon="-1.952507">
        <ele>101.726688</ele>
        <time>2021-09-11T09:22:25.000Z</time>
      </trkpt>
      <trkpt lat="51.694352" lon="-1.952474">
        <ele>101.810619</ele>
        <time>2021-09-11T09:22:27.000Z</time>
      </trkpt>
      <trkpt lat="51.694429" lon="-1.952451">
        <ele>101.850883</ele>
        <time>2021-09-11T09:22:28.000Z</time>
      </trkpt>
      <trkpt lat="51.694589" lon="-1.952419">
        <ele>101.9273</ele>
        <time>2021-09-11T09:22:30.000Z</time>
      </trkpt>
      <trkpt lat="51.694803" lon="-1.952382">
        <ele>101.987889</ele>
        <time>2021-09-11T09:22:32.000Z</time>
      </trkpt>
      <trkpt lat="51.695056" lon="-1.952322">
        <ele>102.015466</ele>
        <time>2021-09-11T09:22:35.000Z</time>
      </trkpt>
      <trkpt lat="51.695351" lon="-1.952284">
        <ele>102.049249</ele>
        <time>2021-09-11T09:22:38.000Z</time>
      </trkpt>
      <trkpt lat="51.696084" lon="-1.9521">
        <ele>102.134335</ele>
        <time>2021-09-11T09:22:46.000Z</time>
      </trkpt>
      <trkpt lat="51.69635" lon="-1.952025">
        <ele>102.165152</ele>
        <time>2021-09-11T09:22:49.000Z</time>
      </trkpt>
      <trkpt lat="51.696748" lon="-1.95192">
        <ele>102.30988</ele>
        <time>2021-09-11T09:22:53.000Z</time>
      </trkpt>
      <trkpt lat="51.697044" lon="-1.951832">
        <ele>102.438303</ele>
        <time>2021-09-11T09:22:56.000Z</time>
      </trkpt>
      <trkpt lat="51.697179" lon="-1.951763">
        <ele>102.502535</ele>
        <time>2021-09-11T09:22:58.000Z</time>
      </trkpt>
      <trkpt lat="51.697396" lon="-1.951612">
        <ele>102.597594</ele>
        <time>2021-09-11T09:23:01.000Z</time>
      </trkpt>
      <trkpt lat="51.697391" lon="-1.951792">
        <ele>102.645386</ele>
        <time>2021-09-11T09:23:02.000Z</time>
      </trkpt>
      <trkpt lat="51.697332" lon="-1.952783">
        <ele>102.912002</ele>
        <time>2021-09-11T09:23:09.000Z</time>
      </trkpt>
      <trkpt lat="51.697295" lon="-1.95316">
        <ele>103.206635</ele>
        <time>2021-09-11T09:23:12.000Z</time>
      </trkpt>
      <trkpt lat="51.697212" lon="-1.953724">
        <ele>103.9387</ele>
        <time>2021-09-11T09:23:16.000Z</time>
      </trkpt>
      <trkpt lat="51.697095" lon="-1.954261">
        <ele>104.664132</ele>
        <time>2021-09-11T09:23:20.000Z</time>
      </trkpt>
      <trkpt lat="51.697035" lon="-1.954643">
        <ele>105.149289</ele>
        <time>2021-09-11T09:23:23.000Z</time>
      </trkpt>
      <trkpt lat="51.697002" lon="-1.95484">
        <ele>105.394194</ele>
        <time>2021-09-11T09:23:24.000Z</time>
      </trkpt>
      <trkpt lat="51.696932" lon="-1.955625">
        <ele>106.386553</ele>
        <time>2021-09-11T09:23:29.000Z</time>
      </trkpt>
      <trkpt lat="51.696857" lon="-1.956789">
        <ele>108.480283</ele>
        <time>2021-09-11T09:23:37.000Z</time>
      </trkpt>
      <trkpt lat="51.696796" lon="-1.95772">
        <ele>110.218263</ele>
        <time>2021-09-11T09:23:43.000Z</time>
      </trkpt>
      <trkpt lat="51.696792" lon="-1.957847">
        <ele>110.449999</ele>
        <time>2021-09-11T09:23:44.000Z</time>
      </trkpt>
      <trkpt lat="51.696834" lon="-1.95873">
        <ele>112.048704</ele>
        <time>2021-09-11T09:23:50.000Z</time>
      </trkpt>
      <trkpt lat="51.69687" lon="-1.959547">
        <ele>112.712953</ele>
        <time>2021-09-11T09:23:56.000Z</time>
      </trkpt>
      <trkpt lat="51.696967" lon="-1.960644">
        <ele>113.609705</ele>
        <time>2021-09-11T09:24:04.000Z</time>
      </trkpt>
      <trkpt lat="51.696886" lon="-1.961618">
        <ele>114.348793</ele>
        <time>2021-09-11T09:24:11.000Z</time>
      </trkpt>
      <trkpt lat="51.696764" lon="-1.962072">
        <ele>114.370484</ele>
        <time>2021-09-11T09:24:14.000Z</time>
      </trkpt>
      <trkpt lat="51.696596" lon="-1.962474">
        <ele>114.391751</ele>
        <time>2021-09-11T09:24:17.000Z</time>
      </trkpt>
      <trkpt lat="51.696292" lon="-1.963031">
        <ele>114.423543</ele>
        <time>2021-09-11T09:24:22.000Z</time>
      </trkpt>
      <trkpt lat="51.695896" lon="-1.963467">
        <ele>114.45717</ele>
        <time>2021-09-11T09:24:27.000Z</time>
      </trkpt>
      <trkpt lat="51.695742" lon="-1.963895">
        <ele>114.476393</ele>
        <time>2021-09-11T09:24:30.000Z</time>
      </trkpt>
      <trkpt lat="51.695723" lon="-1.965949">
        <ele>114.533312</ele>
        <time>2021-09-11T09:24:44.000Z</time>
      </trkpt>
      <trkpt lat="51.695635" lon="-1.966512">
        <ele>114.549301</ele>
        <time>2021-09-11T09:24:48.000Z</time>
      </trkpt>
      <trkpt lat="51.694848" lon="-1.966559">
        <ele>113.809715</ele>
        <time>2021-09-11T09:24:57.000Z</time>
      </trkpt>
      <trkpt lat="51.693319" lon="-1.966585">
        <ele>111.889587</ele>
        <time>2021-09-11T09:25:14.000Z</time>
      </trkpt>
      <trkpt lat="51.692939" lon="-1.966612">
        <ele>111.207168</ele>
        <time>2021-09-11T09:25:18.000Z</time>
      </trkpt>
      <trkpt lat="51.692298" lon="-1.96682">
        <ele>110.050835</ele>
        <time>2021-09-11T09:25:25.000Z</time>
      </trkpt>
      <trkpt lat="51.691664" lon="-1.966975">
        <ele>108.941204</ele>
        <time>2021-09-11T09:25:32.000Z</time>
      </trkpt>
      <trkpt lat="51.691656" lon="-1.966984">
        <ele>108.922094</ele>
        <time>2021-09-11T09:25:32.000Z</time>
      </trkpt>
      <trkpt lat="51.690991" lon="-1.967138">
        <ele>107.757774</ele>
        <time>2021-09-11T09:25:39.000Z</time>
      </trkpt>
      <trkpt lat="51.690218" lon="-1.967315">
        <ele>106.450942</ele>
        <time>2021-09-11T09:25:48.000Z</time>
      </trkpt>
      <trkpt lat="51.689446" lon="-1.967608">
        <ele>106.461197</ele>
        <time>2021-09-11T09:25:57.000Z</time>
      </trkpt>
      <trkpt lat="51.688982" lon="-1.967836">
        <ele>106.474648</ele>
        <time>2021-09-11T09:26:02.000Z</time>
      </trkpt>
      <trkpt lat="51.688822" lon="-1.967919">
        <ele>106.479166</ele>
        <time>2021-09-11T09:26:04.000Z</time>
      </trkpt>
      <trkpt lat="51.688267" lon="-1.968227">
        <ele>106.746526</ele>
        <time>2021-09-11T09:26:11.000Z</time>
      </trkpt>
      <trkpt lat="51.688035" lon="-1.968364">
        <ele>107.028374</ele>
        <time>2021-09-11T09:26:14.000Z</time>
      </trkpt>
      <trkpt lat="51.687371" lon="-1.968797">
        <ele>107.818322</ele>
        <time>2021-09-11T09:26:22.000Z</time>
      </trkpt>
      <trkpt lat="51.687008" lon="-1.969107">
        <ele>108.261184</ele>
        <time>2021-09-11T09:26:27.000Z</time>
      </trkpt>
      <trkpt lat="51.6868" lon="-1.969211">
        <ele>108.458152</ele>
        <time>2021-09-11T09:26:29.000Z</time>
      </trkpt>
      <trkpt lat="51.686394" lon="-1.969258">
        <ele>108.351701</ele>
        <time>2021-09-11T09:26:34.000Z</time>
      </trkpt>
      <trkpt lat="51.685204" lon="-1.969277">
        <ele>108.039907</ele>
        <time>2021-09-11T09:26:47.000Z</time>
      </trkpt>
      <trkpt lat="51.684882" lon="-1.969191">
        <ele>107.802196</ele>
        <time>2021-09-11T09:26:51.000Z</time>
      </trkpt>
      <trkpt lat="51.683425" lon="-1.968523">
        <ele>105.867084</ele>
        <time>2021-09-11T09:27:08.000Z</time>
      </trkpt>
      <trkpt lat="51.682614" lon="-1.968662">
        <ele>104.789933</ele>
        <time>2021-09-11T09:27:17.000Z</time>
      </trkpt>
      <trkpt lat="51.680752" lon="-1.968782">
        <ele>102.49258</ele>
        <time>2021-09-11T09:27:38.000Z</time>
      </trkpt>
      <trkpt lat="51.679756" lon="-1.968951">
        <ele>101.391782</ele>
        <time>2021-09-11T09:27:49.000Z</time>
      </trkpt>
      <trkpt lat="51.679113" lon="-1.96899">
        <ele>100.762648</ele>
        <time>2021-09-11T09:27:56.000Z</time>
      </trkpt>
      <trkpt lat="51.67766" lon="-1.968935">
        <ele>99.582802</ele>
        <time>2021-09-11T09:28:12.000Z</time>
      </trkpt>
      <trkpt lat="51.676823" lon="-1.968867">
        <ele>99.494101</ele>
        <time>2021-09-11T09:28:21.000Z</time>
      </trkpt>
      <trkpt lat="51.677093" lon="-1.969961">
        <ele>99.430028</ele>
        <time>2021-09-11T09:28:29.000Z</time>
      </trkpt>
      <trkpt lat="51.677593" lon="-1.972256">
        <ele>101.199785</ele>
        <time>2021-09-11T09:28:46.000Z</time>
      </trkpt>
      <trkpt lat="51.677896" lon="-1.973355">
        <ele>102.076075</ele>
        <time>2021-09-11T09:28:54.000Z</time>
      </trkpt>
      <trkpt lat="51.677988" lon="-1.973691">
        <ele>102.357773</ele>
        <time>2021-09-11T09:28:57.000Z</time>
      </trkpt>
      <trkpt lat="51.678431" lon="-1.975287">
        <ele>103.646611</ele>
        <time>2021-09-11T09:29:09.000Z</time>
      </trkpt>
      <trkpt lat="51.678591" lon="-1.976146">
        <ele>104.144223</ele>
        <time>2021-09-11T09:29:15.000Z</time>
      </trkpt>
      <trkpt lat="51.678742" lon="-1.978611">
        <ele>105.466501</ele>
        <time>2021-09-11T09:29:32.000Z</time>
      </trkpt>
      <trkpt lat="51.678592" lon="-1.982261">
        <ele>106.681184</ele>
        <time>2021-09-11T09:29:57.000Z</time>
      </trkpt>
      <trkpt lat="51.678807" lon="-1.984054">
        <ele>106.715838</ele>
        <time>2021-09-11T09:30:10.000Z</time>
      </trkpt>
      <trkpt lat="51.67879" lon="-1.985147">
        <ele>106.410826</ele>
        <time>2021-09-11T09:30:18.000Z</time>
      </trkpt>
      <trkpt lat="51.678756" lon="-1.98538">
        <ele>106.345629</ele>
        <time>2021-09-11T09:30:20.000Z</time>
      </trkpt>
      <trkpt lat="51.678429" lon="-1.987721">
        <ele>105.758439</ele>
        <time>2021-09-11T09:30:37.000Z</time>
      </trkpt>
      <trkpt lat="51.678354" lon="-1.988241">
        <ele>105.65461</ele>
        <time>2021-09-11T09:30:41.000Z</time>
      </trkpt>
      <trkpt lat="51.678075" lon="-1.989526">
        <ele>105.386407</ele>
        <time>2021-09-11T09:30:50.000Z</time>
      </trkpt>
      <trkpt lat="51.677961" lon="-1.989884">
        <ele>105.106228</ele>
        <time>2021-09-11T09:30:53.000Z</time>
      </trkpt>
      <trkpt lat="51.67779" lon="-1.990486">
        <ele>104.605556</ele>
        <time>2021-09-11T09:30:58.000Z</time>
      </trkpt>
      <trkpt lat="51.677502" lon="-1.991246">
        <ele>103.918258</ele>
        <time>2021-09-11T09:31:04.000Z</time>
      </trkpt>
      <trkpt lat="51.677087" lon="-1.991879">
        <ele>103.211087</ele>
        <time>2021-09-11T09:31:10.000Z</time>
      </trkpt>
      <trkpt lat="51.676886" lon="-1.994363">
        <ele>101.493845</ele>
        <time>2021-09-11T09:31:27.000Z</time>
      </trkpt>
      <trkpt lat="51.676516" lon="-1.995311">
        <ele>100.93245</ele>
        <time>2021-09-11T09:31:35.000Z</time>
      </trkpt>
      <trkpt lat="51.676464" lon="-1.99542">
        <ele>100.879535</ele>
        <time>2021-09-11T09:31:36.000Z</time>
      </trkpt>
      <trkpt lat="51.676384" lon="-1.995941">
        <ele>100.675089</ele>
        <time>2021-09-11T09:31:40.000Z</time>
      </trkpt>
      <trkpt lat="51.676298" lon="-1.997066">
        <ele>100.234073</ele>
        <time>2021-09-11T09:31:48.000Z</time>
      </trkpt>
      <trkpt lat="51.676225" lon="-1.997695">
        <ele>100.051404</ele>
        <time>2021-09-11T09:31:52.000Z</time>
      </trkpt>
      <trkpt lat="51.67618" lon="-1.997916">
        <ele>100.026654</ele>
        <time>2021-09-11T09:31:54.000Z</time>
      </trkpt>
      <trkpt lat="51.676104" lon="-1.998718">
        <ele>99.943666</ele>
        <time>2021-09-11T09:32:00.000Z</time>
      </trkpt>
      <trkpt lat="51.676217" lon="-1.99975">
        <ele>99.835725</ele>
        <time>2021-09-11T09:32:07.000Z</time>
      </trkpt>
      <trkpt lat="51.676204" lon="-2.000176">
        <ele>99.791582</ele>
        <time>2021-09-11T09:32:10.000Z</time>
      </trkpt>
      <trkpt lat="51.676131" lon="-2.000665">
        <ele>99.656945</ele>
        <time>2021-09-11T09:32:13.000Z</time>
      </trkpt>
      <trkpt lat="51.675987" lon="-2.001198">
        <ele>99.463012</ele>
        <time>2021-09-11T09:32:17.000Z</time>
      </trkpt>
      <trkpt lat="51.675781" lon="-2.001917">
        <ele>99.194113</ele>
        <time>2021-09-11T09:32:22.000Z</time>
      </trkpt>
      <trkpt lat="51.675743" lon="-2.002116">
        <ele>99.119975</ele>
        <time>2021-09-11T09:32:23.000Z</time>
      </trkpt>
      <trkpt lat="51.675547" lon="-2.003172">
        <ele>98.775075</ele>
        <time>2021-09-11T09:32:31.000Z</time>
      </trkpt>
      <trkpt lat="51.675468" lon="-2.003862">
        <ele>98.719346</ele>
        <time>2021-09-11T09:32:36.000Z</time>
      </trkpt>
      <trkpt lat="51.675305" lon="-2.005515">
        <ele>98.587012</ele>
        <time>2021-09-11T09:32:48.000Z</time>
      </trkpt>
      <trkpt lat="51.675234" lon="-2.006812">
        <ele>98.830646</ele>
        <time>2021-09-11T09:32:57.000Z</time>
      </trkpt>
      <trkpt lat="51.675224" lon="-2.007112">
        <ele>98.925549</ele>
        <time>2021-09-11T09:32:59.000Z</time>
      </trkpt>
      <trkpt lat="51.675113" lon="-2.00859">
        <ele>99.389653</ele>
        <time>2021-09-11T09:33:09.000Z</time>
      </trkpt>
      <trkpt lat="51.675071" lon="-2.009876">
        <ele>100.748519</ele>
        <time>2021-09-11T09:33:18.000Z</time>
      </trkpt>
      <trkpt lat="51.675001" lon="-2.010213">
        <ele>101.175833</ele>
        <time>2021-09-11T09:33:20.000Z</time>
      </trkpt>
      <trkpt lat="51.674825" lon="-2.010616">
        <ele>101.78264</ele>
        <time>2021-09-11T09:33:23.000Z</time>
      </trkpt>
      <trkpt lat="51.674628" lon="-2.011024">
        <ele>102.418444</ele>
        <time>2021-09-11T09:33:27.000Z</time>
      </trkpt>
      <trkpt lat="51.674161" lon="-2.011732">
        <ele>104.225193</ele>
        <time>2021-09-11T09:33:34.000Z</time>
      </trkpt>
      <trkpt lat="51.673484" lon="-2.012786">
        <ele>107.670261</ele>
        <time>2021-09-11T09:33:44.000Z</time>
      </trkpt>
      <trkpt lat="51.673443" lon="-2.012869">
        <ele>107.91934</ele>
        <time>2021-09-11T09:33:45.000Z</time>
      </trkpt>
      <trkpt lat="51.67329" lon="-2.013196">
        <ele>108.860391</ele>
        <time>2021-09-11T09:33:48.000Z</time>
      </trkpt>
      <trkpt lat="51.673241" lon="-2.013458">
        <ele>109.460391</ele>
        <time>2021-09-11T09:33:50.000Z</time>
      </trkpt>
      <trkpt lat="51.673236" lon="-2.01379">
        <ele>110.070428</ele>
        <time>2021-09-11T09:33:52.000Z</time>
      </trkpt>
      <trkpt lat="51.673252" lon="-2.01382">
        <ele>110.141536</ele>
        <time>2021-09-11T09:33:52.000Z</time>
      </trkpt>
      <trkpt lat="51.673295" lon="-2.014173">
        <ele>110.775651</ele>
        <time>2021-09-11T09:33:54.000Z</time>
      </trkpt>
      <trkpt lat="51.67341" lon="-2.014609">
        <ele>111.655661</ele>
        <time>2021-09-11T09:33:57.000Z</time>
      </trkpt>
      <trkpt lat="51.673621" lon="-2.01552">
        <ele>113.429649</ele>
        <time>2021-09-11T09:34:04.000Z</time>
      </trkpt>
      <trkpt lat="51.673638" lon="-2.015574">
        <ele>113.504911</ele>
        <time>2021-09-11T09:34:04.000Z</time>
      </trkpt>
      <trkpt lat="51.673906" lon="-2.016642">
        <ele>115.279601</ele>
        <time>2021-09-11T09:34:12.000Z</time>
      </trkpt>
      <trkpt lat="51.673933" lon="-2.016708">
        <ele>115.363423</ele>
        <time>2021-09-11T09:34:13.000Z</time>
      </trkpt>
      <trkpt lat="51.673988" lon="-2.016927">
        <ele>115.613231</ele>
        <time>2021-09-11T09:34:15.000Z</time>
      </trkpt>
      <trkpt lat="51.674011" lon="-2.017175">
        <ele>115.878664</ele>
        <time>2021-09-11T09:34:17.000Z</time>
      </trkpt>
      <trkpt lat="51.674036" lon="-2.017444">
        <ele>116.156161</ele>
        <time>2021-09-11T09:34:19.000Z</time>
      </trkpt>
      <trkpt lat="51.674157" lon="-2.01817">
        <ele>116.950003</ele>
        <time>2021-09-11T09:34:24.000Z</time>
      </trkpt>
      <trkpt lat="51.673578" lon="-2.018427">
        <ele>117.936661</ele>
        <time>2021-09-11T09:34:31.000Z</time>
      </trkpt>
      <trkpt lat="51.673531" lon="-2.018474">
        <ele>117.988687</ele>
        <time>2021-09-11T09:34:32.000Z</time>
      </trkpt>
      <trkpt lat="51.673436" lon="-2.018655">
        <ele>118.150256</ele>
        <time>2021-09-11T09:34:34.000Z</time>
      </trkpt>
      <trkpt lat="51.673347" lon="-2.018912">
        <ele>118.36047</ele>
        <time>2021-09-11T09:34:36.000Z</time>
      </trkpt>
      <trkpt lat="51.673336" lon="-2.018949">
        <ele>118.382059</ele>
        <time>2021-09-11T09:34:36.000Z</time>
      </trkpt>
      <trkpt lat="51.67331" lon="-2.019201">
        <ele>118.558967</ele>
        <time>2021-09-11T09:34:38.000Z</time>
      </trkpt>
      <trkpt lat="51.673266" lon="-2.019541">
        <ele>118.795903</ele>
        <time>2021-09-11T09:34:40.000Z</time>
      </trkpt>
      <trkpt lat="51.673221" lon="-2.020093">
        <ele>119.183076</ele>
        <time>2021-09-11T09:34:44.000Z</time>
      </trkpt>
      <trkpt lat="51.673201" lon="-2.020463">
        <ele>119.440395</ele>
        <time>2021-09-11T09:34:47.000Z</time>
      </trkpt>
      <trkpt lat="51.673154" lon="-2.020605">
        <ele>119.537477</ele>
        <time>2021-09-11T09:34:48.000Z</time>
      </trkpt>
      <trkpt lat="51.673032" lon="-2.020785">
        <ele>119.727531</ele>
        <time>2021-09-11T09:34:50.000Z</time>
      </trkpt>
      <trkpt lat="51.672998" lon="-2.020806">
        <ele>119.767945</ele>
        <time>2021-09-11T09:34:50.000Z</time>
      </trkpt>
      <trkpt lat="51.673043" lon="-2.020892">
        <ele>119.848278</ele>
        <time>2021-09-11T09:34:51.000Z</time>
      </trkpt>
      <trkpt lat="51.673085" lon="-2.020962">
        <ele>119.910162</ele>
        <time>2021-09-11T09:34:52.000Z</time>
      </trkpt>
      <trkpt lat="51.673183" lon="-2.021091">
        <ele>120.074142</ele>
        <time>2021-09-11T09:34:53.000Z</time>
      </trkpt>
      <trkpt lat="51.673245" lon="-2.021133">
        <ele>120.162254</ele>
        <time>2021-09-11T09:34:54.000Z</time>
      </trkpt>
      <trkpt lat="51.673265" lon="-2.021171">
        <ele>120.19618</ele>
        <time>2021-09-11T09:34:54.000Z</time>
      </trkpt>
      <trkpt lat="51.673183" lon="-2.021409">
        <ele>120.408232</ele>
        <time>2021-09-11T09:34:56.000Z</time>
      </trkpt>
      <trkpt lat="51.673082" lon="-2.021842">
        <ele>120.778553</ele>
        <time>2021-09-11T09:34:59.000Z</time>
      </trkpt>
      <trkpt lat="51.673055" lon="-2.021979">
        <ele>120.881401</ele>
        <time>2021-09-11T09:35:00.000Z</time>
      </trkpt>
      <trkpt lat="51.673011" lon="-2.022204">
        <ele>121.067356</ele>
        <time>2021-09-11T09:35:02.000Z</time>
      </trkpt>
      <trkpt lat="51.672981" lon="-2.022555">
        <ele>121.342427</ele>
        <time>2021-09-11T09:35:04.000Z</time>
      </trkpt>
      <trkpt lat="51.672979" lon="-2.022833">
        <ele>121.55336</ele>
        <time>2021-09-11T09:35:06.000Z</time>
      </trkpt>
      <trkpt lat="51.672947" lon="-2.023145">
        <ele>121.811047</ele>
        <time>2021-09-11T09:35:08.000Z</time>
      </trkpt>
      <trkpt lat="51.672938" lon="-2.023345">
        <ele>121.962284</ele>
        <time>2021-09-11T09:35:09.000Z</time>
      </trkpt>
      <trkpt lat="51.672945" lon="-2.02338">
        <ele>121.986505</ele>
        <time>2021-09-11T09:35:09.000Z</time>
      </trkpt>
      <trkpt lat="51.672919" lon="-2.023626">
        <ele>122.156532</ele>
        <time>2021-09-11T09:35:11.000Z</time>
      </trkpt>
      <trkpt lat="51.672888" lon="-2.023799">
        <ele>122.254066</ele>
        <time>2021-09-11T09:35:12.000Z</time>
      </trkpt>
      <trkpt lat="51.672464" lon="-2.026277">
        <ele>123.609409</ele>
        <time>2021-09-11T09:35:30.000Z</time>
      </trkpt>
      <trkpt lat="51.672081" lon="-2.028187">
        <ele>123.273701</ele>
        <time>2021-09-11T09:35:44.000Z</time>
      </trkpt>
      <trkpt lat="51.671913" lon="-2.029196">
        <ele>123.037865</ele>
        <time>2021-09-11T09:35:51.000Z</time>
      </trkpt>
      <trkpt lat="51.671544" lon="-2.030487">
        <ele>122.211792</ele>
        <time>2021-09-11T09:36:01.000Z</time>
      </trkpt>
      <trkpt lat="51.670966" lon="-2.033276">
        <ele>120.361043</ele>
        <time>2021-09-11T09:36:21.000Z</time>
      </trkpt>
      <trkpt lat="51.670326" lon="-2.035109">
        <ele>119.333131</ele>
        <time>2021-09-11T09:36:36.000Z</time>
      </trkpt>
      <trkpt lat="51.669976" lon="-2.036323">
        <ele>119.133235</ele>
        <time>2021-09-11T09:36:45.000Z</time>
      </trkpt>
      <trkpt lat="51.669781" lon="-2.037468">
        <ele>119.250528</ele>
        <time>2021-09-11T09:36:53.000Z</time>
      </trkpt>
      <trkpt lat="51.669512" lon="-2.039497">
        <ele>120.511668</ele>
        <time>2021-09-11T09:37:07.000Z</time>
      </trkpt>
      <trkpt lat="51.669106" lon="-2.041082">
        <ele>121.727507</ele>
        <time>2021-09-11T09:37:19.000Z</time>
      </trkpt>
      <trkpt lat="51.668432" lon="-2.044532">
        <ele>124.206415</ele>
        <time>2021-09-11T09:37:44.000Z</time>
      </trkpt>
      <trkpt lat="51.667926" lon="-2.047137">
        <ele>125.605559</ele>
        <time>2021-09-11T09:38:03.000Z</time>
      </trkpt>
      <trkpt lat="51.667828" lon="-2.04744">
        <ele>125.76061</ele>
        <time>2021-09-11T09:38:05.000Z</time>
      </trkpt>
      <trkpt lat="51.667427" lon="-2.048143">
        <ele>126.061212</ele>
        <time>2021-09-11T09:38:12.000Z</time>
      </trkpt>
      <trkpt lat="51.667163" lon="-2.048486">
        <ele>126.002125</ele>
        <time>2021-09-11T09:38:16.000Z</time>
      </trkpt>
      <trkpt lat="51.666587" lon="-2.049283">
        <ele>125.866638</ele>
        <time>2021-09-11T09:38:24.000Z</time>
      </trkpt>
      <trkpt lat="51.666213" lon="-2.049734">
        <ele>125.783666</ele>
        <time>2021-09-11T09:38:29.000Z</time>
      </trkpt>
      <trkpt lat="51.665732" lon="-2.050242">
        <ele>125.483538</ele>
        <time>2021-09-11T09:38:35.000Z</time>
      </trkpt>
      <trkpt lat="51.665686" lon="-2.050288">
        <ele>125.452672</ele>
        <time>2021-09-11T09:38:36.000Z</time>
      </trkpt>
      <trkpt lat="51.664676" lon="-2.05119">
        <ele>124.762565</ele>
        <time>2021-09-11T09:38:49.000Z</time>
      </trkpt>
      <trkpt lat="51.664516" lon="-2.051338">
        <ele>124.652143</ele>
        <time>2021-09-11T09:38:51.000Z</time>
      </trkpt>
      <trkpt lat="51.664063" lon="-2.051676">
        <ele>124.387429</ele>
        <time>2021-09-11T09:38:57.000Z</time>
      </trkpt>
      <trkpt lat="51.663666" lon="-2.051877">
        <ele>124.167353</ele>
        <time>2021-09-11T09:39:02.000Z</time>
      </trkpt>
      <trkpt lat="51.663502" lon="-2.051934">
        <ele>124.074425</ele>
        <time>2021-09-11T09:39:04.000Z</time>
      </trkpt>
      <trkpt lat="51.663259" lon="-2.052023">
        <ele>123.944338</ele>
        <time>2021-09-11T09:39:07.000Z</time>
      </trkpt>
      <trkpt lat="51.662864" lon="-2.052141">
        <ele>123.712237</ele>
        <time>2021-09-11T09:39:11.000Z</time>
      </trkpt>
      <trkpt lat="51.662563" lon="-2.052215">
        <ele>123.340517</ele>
        <time>2021-09-11T09:39:14.000Z</time>
      </trkpt>
      <trkpt lat="51.66224" lon="-2.052257">
        <ele>122.924921</ele>
        <time>2021-09-11T09:39:18.000Z</time>
      </trkpt>
      <trkpt lat="51.661223" lon="-2.052338">
        <ele>121.652319</ele>
        <time>2021-09-11T09:39:29.000Z</time>
      </trkpt>
      <trkpt lat="51.660891" lon="-2.052343">
        <ele>121.0884</ele>
        <time>2021-09-11T09:39:33.000Z</time>
      </trkpt>
      <trkpt lat="51.660547" lon="-2.052335">
        <ele>120.367142</ele>
        <time>2021-09-11T09:39:37.000Z</time>
      </trkpt>
      <trkpt lat="51.660321" lon="-2.052339">
        <ele>119.901062</ele>
        <time>2021-09-11T09:39:40.000Z</time>
      </trkpt>
      <trkpt lat="51.65993" lon="-2.052367">
        <ele>119.043711</ele>
        <time>2021-09-11T09:39:44.000Z</time>
      </trkpt>
      <trkpt lat="51.658966" lon="-2.052629">
        <ele>116.805481</ele>
        <time>2021-09-11T09:39:55.000Z</time>
      </trkpt>
      <trkpt lat="51.65814" lon="-2.052654">
        <ele>114.568169</ele>
        <time>2021-09-11T09:40:04.000Z</time>
      </trkpt>
      <trkpt lat="51.657352" lon="-2.052704">
        <ele>112.418959</ele>
        <time>2021-09-11T09:40:13.000Z</time>
      </trkpt>
      <trkpt lat="51.657029" lon="-2.052793">
        <ele>111.614399</ele>
        <time>2021-09-11T09:40:17.000Z</time>
      </trkpt>
      <trkpt lat="51.656382" lon="-2.053092">
        <ele>109.923286</ele>
        <time>2021-09-11T09:40:24.000Z</time>
      </trkpt>
      <trkpt lat="51.655921" lon="-2.053374">
        <ele>108.669846</ele>
        <time>2021-09-11T09:40:29.000Z</time>
      </trkpt>
      <trkpt lat="51.655738" lon="-2.053475">
        <ele>108.271223</ele>
        <time>2021-09-11T09:40:31.000Z</time>
      </trkpt>
      <trkpt lat="51.655316" lon="-2.053789">
        <ele>108.337871</ele>
        <time>2021-09-11T09:40:36.000Z</time>
      </trkpt>
      <trkpt lat="51.65476" lon="-2.054237">
        <ele>108.428236</ele>
        <time>2021-09-11T09:40:43.000Z</time>
      </trkpt>
      <trkpt lat="51.653858" lon="-2.055123">
        <ele>109.315882</ele>
        <time>2021-09-11T09:40:55.000Z</time>
      </trkpt>
      <trkpt lat="51.653407" lon="-2.055473">
        <ele>110.396251</ele>
        <time>2021-09-11T09:41:01.000Z</time>
      </trkpt>
      <trkpt lat="51.653268" lon="-2.055538">
        <ele>110.689501</ele>
        <time>2021-09-11T09:41:03.000Z</time>
      </trkpt>
      <trkpt lat="51.653178" lon="-2.055592">
        <ele>110.900637</ele>
        <time>2021-09-11T09:41:04.000Z</time>
      </trkpt>
      <trkpt lat="51.65198" lon="-2.055858">
        <ele>113.324161</ele>
        <time>2021-09-11T09:41:17.000Z</time>
      </trkpt>
      <trkpt lat="51.651144" lon="-2.056216">
        <ele>114.897256</ele>
        <time>2021-09-11T09:41:27.000Z</time>
      </trkpt>
      <trkpt lat="51.650133" lon="-2.056795">
        <ele>116.144026</ele>
        <time>2021-09-11T09:41:39.000Z</time>
      </trkpt>
      <trkpt lat="51.64818" lon="-2.058395">
        <ele>117.064711</ele>
        <time>2021-09-11T09:42:03.000Z</time>
      </trkpt>
      <trkpt lat="51.646768" lon="-2.05925">
        <ele>116.413627</ele>
        <time>2021-09-11T09:42:20.000Z</time>
      </trkpt>
      <trkpt lat="51.646288" lon="-2.059482">
        <ele>115.964342</ele>
        <time>2021-09-11T09:42:26.000Z</time>
      </trkpt>
      <trkpt lat="51.645003" lon="-2.059668">
        <ele>114.536082</ele>
        <time>2021-09-11T09:42:40.000Z</time>
      </trkpt>
      <trkpt lat="51.644557" lon="-2.059785">
        <ele>113.975701</ele>
        <time>2021-09-11T09:42:45.000Z</time>
      </trkpt>
      <trkpt lat="51.642606" lon="-2.060618">
        <ele>111.563433</ele>
        <time>2021-09-11T09:43:07.000Z</time>
      </trkpt>
      <trkpt lat="51.640988" lon="-2.061503">
        <ele>109.415898</ele>
        <time>2021-09-11T09:43:26.000Z</time>
      </trkpt>
      <trkpt lat="51.64046" lon="-2.061858">
        <ele>108.651499</ele>
        <time>2021-09-11T09:43:32.000Z</time>
      </trkpt>
      <trkpt lat="51.638701" lon="-2.063927">
        <ele>105.492098</ele>
        <time>2021-09-11T09:43:56.000Z</time>
      </trkpt>
      <trkpt lat="51.637874" lon="-2.064718">
        <ele>104.338509</ele>
        <time>2021-09-11T09:44:07.000Z</time>
      </trkpt>
      <trkpt lat="51.637312" lon="-2.065174">
        <ele>103.639735</ele>
        <time>2021-09-11T09:44:14.000Z</time>
      </trkpt>
      <trkpt lat="51.637168" lon="-2.065302">
        <ele>103.468137</ele>
        <time>2021-09-11T09:44:16.000Z</time>
      </trkpt>
      <trkpt lat="51.636643" lon="-2.065662">
        <ele>102.908764</ele>
        <time>2021-09-11T09:44:22.000Z</time>
      </trkpt>
      <trkpt lat="51.636473" lon="-2.065741">
        <ele>102.73833</ele>
        <time>2021-09-11T09:44:24.000Z</time>
      </trkpt>
      <trkpt lat="51.636325" lon="-2.065803">
        <ele>102.594894</ele>
        <time>2021-09-11T09:44:26.000Z</time>
      </trkpt>
      <trkpt lat="51.635962" lon="-2.065991">
        <ele>102.208475</ele>
        <time>2021-09-11T09:44:30.000Z</time>
      </trkpt>
      <trkpt lat="51.635389" lon="-2.066403">
        <ele>101.336039</ele>
        <time>2021-09-11T09:44:37.000Z</time>
      </trkpt>
      <trkpt lat="51.634991" lon="-2.066724">
        <ele>100.67259</ele>
        <time>2021-09-11T09:44:42.000Z</time>
      </trkpt>
      <trkpt lat="51.634884" lon="-2.06683">
        <ele>100.479623</ele>
        <time>2021-09-11T09:44:43.000Z</time>
      </trkpt>
      <trkpt lat="51.634763" lon="-2.066932">
        <ele>100.284524</ele>
        <time>2021-09-11T09:44:45.000Z</time>
      </trkpt>
      <trkpt lat="51.634551" lon="-2.067252">
        <ele>99.848348</ele>
        <time>2021-09-11T09:44:48.000Z</time>
      </trkpt>
      <trkpt lat="51.634225" lon="-2.067989">
        <ele>99.346457</ele>
        <time>2021-09-11T09:44:54.000Z</time>
      </trkpt>
      <trkpt lat="51.63405" lon="-2.0685">
        <ele>99.174049</ele>
        <time>2021-09-11T09:44:58.000Z</time>
      </trkpt>
      <trkpt lat="51.633962" lon="-2.068739">
        <ele>99.092137</ele>
        <time>2021-09-11T09:45:00.000Z</time>
      </trkpt>
      <trkpt lat="51.633915" lon="-2.068828">
        <ele>99.060804</ele>
        <time>2021-09-11T09:45:01.000Z</time>
      </trkpt>
      <trkpt lat="51.63381" lon="-2.068988">
        <ele>98.988223</ele>
        <time>2021-09-11T09:45:03.000Z</time>
      </trkpt>
      <trkpt lat="51.633695" lon="-2.069102">
        <ele>98.923074</ele>
        <time>2021-09-11T09:45:05.000Z</time>
      </trkpt>
      <trkpt lat="51.63354" lon="-2.069238">
        <ele>98.840854</ele>
        <time>2021-09-11T09:45:07.000Z</time>
      </trkpt>
      <trkpt lat="51.633285" lon="-2.069509">
        <ele>98.692035</ele>
        <time>2021-09-11T09:45:10.000Z</time>
      </trkpt>
      <trkpt lat="51.633101" lon="-2.069686">
        <ele>98.652395</ele>
        <time>2021-09-11T09:45:12.000Z</time>
      </trkpt>
      <trkpt lat="51.633011" lon="-2.069755">
        <ele>98.662819</ele>
        <time>2021-09-11T09:45:13.000Z</time>
      </trkpt>
      <trkpt lat="51.632966" lon="-2.069792">
        <ele>98.669478</ele>
        <time>2021-09-11T09:45:14.000Z</time>
      </trkpt>
      <trkpt lat="51.632666" lon="-2.070041">
        <ele>98.707444</ele>
        <time>2021-09-11T09:45:18.000Z</time>
      </trkpt>
      <trkpt lat="51.632056" lon="-2.070541">
        <ele>98.7863</ele>
        <time>2021-09-11T09:45:26.000Z</time>
      </trkpt>
      <trkpt lat="51.631066" lon="-2.071241">
        <ele>98.96497</ele>
        <time>2021-09-11T09:45:38.000Z</time>
      </trkpt>
      <trkpt lat="51.630338" lon="-2.071934">
        <ele>99.146652</ele>
        <time>2021-09-11T09:45:47.000Z</time>
      </trkpt>
      <trkpt lat="51.630088" lon="-2.072328">
        <ele>99.220342</ele>
        <time>2021-09-11T09:45:51.000Z</time>
      </trkpt>
      <trkpt lat="51.629833" lon="-2.073093">
        <ele>99.744258</ele>
        <time>2021-09-11T09:45:57.000Z</time>
      </trkpt>
      <trkpt lat="51.629678" lon="-2.073471">
        <ele>100.039997</ele>
        <time>2021-09-11T09:46:00.000Z</time>
      </trkpt>
      <trkpt lat="51.629505" lon="-2.073818">
        <ele>100.326869</ele>
        <time>2021-09-11T09:46:03.000Z</time>
      </trkpt>
      <trkpt lat="51.629301" lon="-2.074164">
        <ele>100.646102</ele>
        <time>2021-09-11T09:46:06.000Z</time>
      </trkpt>
      <trkpt lat="51.628926" lon="-2.074662">
        <ele>101.158773</ele>
        <time>2021-09-11T09:46:11.000Z</time>
      </trkpt>
      <trkpt lat="51.628708" lon="-2.07492">
        <ele>101.607372</ele>
        <time>2021-09-11T09:46:14.000Z</time>
      </trkpt>
      <trkpt lat="51.628436" lon="-2.075145">
        <ele>102.088443</ele>
        <time>2021-09-11T09:46:17.000Z</time>
      </trkpt>
      <trkpt lat="51.628129" lon="-2.075336">
        <ele>102.620427</ele>
        <time>2021-09-11T09:46:21.000Z</time>
      </trkpt>
      <trkpt lat="51.627728" lon="-2.075517">
        <ele>103.29028</ele>
        <time>2021-09-11T09:46:26.000Z</time>
      </trkpt>
      <trkpt lat="51.627254" lon="-2.075527">
        <ele>104.041415</ele>
        <time>2021-09-11T09:46:31.000Z</time>
      </trkpt>
      <trkpt lat="51.626484" lon="-2.075424">
        <ele>104.647987</ele>
        <time>2021-09-11T09:46:40.000Z</time>
      </trkpt>
      <trkpt lat="51.625961" lon="-2.075372">
        <ele>105.072233</ele>
        <time>2021-09-11T09:46:46.000Z</time>
      </trkpt>
      <trkpt lat="51.624915" lon="-2.0753">
        <ele>105.361649</ele>
        <time>2021-09-11T09:46:58.000Z</time>
      </trkpt>
      <trkpt lat="51.623214" lon="-2.075819">
        <ele>105.046081</ele>
        <time>2021-09-11T09:47:17.000Z</time>
      </trkpt>
      <trkpt lat="51.621909" lon="-2.075862">
        <ele>104.701684</ele>
        <time>2021-09-11T09:47:32.000Z</time>
      </trkpt>
      <trkpt lat="51.620549" lon="-2.076321">
        <ele>104.265551</ele>
        <time>2021-09-11T09:47:47.000Z</time>
      </trkpt>
      <trkpt lat="51.618863" lon="-2.076661">
        <ele>103.205469</ele>
        <time>2021-09-11T09:48:06.000Z</time>
      </trkpt>
      <trkpt lat="51.618031" lon="-2.07701">
        <ele>102.468078</ele>
        <time>2021-09-11T09:48:16.000Z</time>
      </trkpt>
      <trkpt lat="51.616616" lon="-2.077597">
        <ele>100.945691</ele>
        <time>2021-09-11T09:48:32.000Z</time>
      </trkpt>
      <trkpt lat="51.616141" lon="-2.077651">
        <ele>100.932325</ele>
        <time>2021-09-11T09:48:37.000Z</time>
      </trkpt>
      <trkpt lat="51.614744" lon="-2.077632">
        <ele>101.07814</ele>
        <time>2021-09-11T09:48:53.000Z</time>
      </trkpt>
      <trkpt lat="51.613964" lon="-2.077838">
        <ele>102.428176</ele>
        <time>2021-09-11T09:49:02.000Z</time>
      </trkpt>
      <trkpt lat="51.61361" lon="-2.078003">
        <ele>103.094202</ele>
        <time>2021-09-11T09:49:06.000Z</time>
      </trkpt>
      <trkpt lat="51.613236" lon="-2.078313">
        <ele>103.810714</ele>
        <time>2021-09-11T09:49:11.000Z</time>
      </trkpt>
      <trkpt lat="51.612526" lon="-2.078984">
        <ele>104.74847</ele>
        <time>2021-09-11T09:49:20.000Z</time>
      </trkpt>
      <trkpt lat="51.610631" lon="-2.0806">
        <ele>105.852735</ele>
        <time>2021-09-11T09:49:44.000Z</time>
      </trkpt>
      <trkpt lat="51.610099" lon="-2.081159">
        <ele>105.820235</ele>
        <time>2021-09-11T09:49:51.000Z</time>
      </trkpt>
      <trkpt lat="51.607838" lon="-2.08342">
        <ele>103.94196</ele>
        <time>2021-09-11T09:50:21.000Z</time>
      </trkpt>
      <trkpt lat="51.606692" lon="-2.084591">
        <ele>102.494202</ele>
        <time>2021-09-11T09:50:36.000Z</time>
      </trkpt>
      <trkpt lat="51.605009" lon="-2.086072">
        <ele>99.109299</ele>
        <time>2021-09-11T09:50:57.000Z</time>
      </trkpt>
      <trkpt lat="51.604721" lon="-2.086293">
        <ele>98.395299</ele>
        <time>2021-09-11T09:51:01.000Z</time>
      </trkpt>
      <trkpt lat="51.604538" lon="-2.086415">
        <ele>97.954686</ele>
        <time>2021-09-11T09:51:03.000Z</time>
      </trkpt>
      <trkpt lat="51.603994" lon="-2.08672">
        <ele>96.680437</ele>
        <time>2021-09-11T09:51:09.000Z</time>
      </trkpt>
      <trkpt lat="51.603613" lon="-2.086943">
        <ele>95.848561</ele>
        <time>2021-09-11T09:51:14.000Z</time>
      </trkpt>
      <trkpt lat="51.603482" lon="-2.087005">
        <ele>95.598163</ele>
        <time>2021-09-11T09:51:16.000Z</time>
      </trkpt>
      <trkpt lat="51.603398" lon="-2.087022">
        <ele>95.467188</ele>
        <time>2021-09-11T09:51:17.000Z</time>
      </trkpt>
      <trkpt lat="51.60337" lon="-2.087015">
        <ele>95.399905</ele>
        <time>2021-09-11T09:51:17.000Z</time>
      </trkpt>
      <trkpt lat="51.602883" lon="-2.087093">
        <ele>94.521686</ele>
        <time>2021-09-11T09:51:22.000Z</time>
      </trkpt>
      <trkpt lat="51.602484" lon="-2.087132">
        <ele>93.778799</ele>
        <time>2021-09-11T09:51:26.000Z</time>
      </trkpt>
      <trkpt lat="51.601821" lon="-2.087179">
        <ele>92.6099</ele>
        <time>2021-09-11T09:51:33.000Z</time>
      </trkpt>
      <trkpt lat="51.600798" lon="-2.087434">
        <ele>90.846271</ele>
        <time>2021-09-11T09:51:45.000Z</time>
      </trkpt>
      <trkpt lat="51.600119" lon="-2.087886">
        <ele>89.631455</ele>
        <time>2021-09-11T09:51:53.000Z</time>
      </trkpt>
      <trkpt lat="51.599868" lon="-2.087996">
        <ele>89.243733</ele>
        <time>2021-09-11T09:51:56.000Z</time>
      </trkpt>
      <trkpt lat="51.599104" lon="-2.088184">
        <ele>88.169445</ele>
        <time>2021-09-11T09:52:05.000Z</time>
      </trkpt>
      <trkpt lat="51.598413" lon="-2.088348">
        <ele>87.240691</ele>
        <time>2021-09-11T09:52:13.000Z</time>
      </trkpt>
      <trkpt lat="51.595171" lon="-2.088783">
        <ele>88.758704</ele>
        <time>2021-09-11T09:52:49.000Z</time>
      </trkpt>
      <trkpt lat="51.59495" lon="-2.088818">
        <ele>88.907756</ele>
        <time>2021-09-11T09:52:51.000Z</time>
      </trkpt>
      <trkpt lat="51.594664" lon="-2.088802">
        <ele>89.197466</ele>
        <time>2021-09-11T09:52:54.000Z</time>
      </trkpt>
      <trkpt lat="51.594535" lon="-2.088755">
        <ele>89.332668</ele>
        <time>2021-09-11T09:52:55.000Z</time>
      </trkpt>
      <trkpt lat="51.594506" lon="-2.088698">
        <ele>89.379211</ele>
        <time>2021-09-11T09:52:56.000Z</time>
      </trkpt>
      <trkpt lat="51.594468" lon="-2.088649">
        <ele>89.441043</ele>
        <time>2021-09-11T09:52:57.000Z</time>
      </trkpt>
      <trkpt lat="51.594416" lon="-2.088623">
        <ele>89.503044</ele>
        <time>2021-09-11T09:52:58.000Z</time>
      </trkpt>
      <trkpt lat="51.594337" lon="-2.088676">
        <ele>89.604341</ele>
        <time>2021-09-11T09:52:59.000Z</time>
      </trkpt>
      <trkpt lat="51.59431" lon="-2.088721">
        <ele>89.651271</ele>
        <time>2021-09-11T09:52:59.000Z</time>
      </trkpt>
      <trkpt lat="51.594138" lon="-2.088842">
        <ele>89.849917</ele>
        <time>2021-09-11T09:53:01.000Z</time>
      </trkpt>
      <trkpt lat="51.593763" lon="-2.088915">
        <ele>90.255311</ele>
        <time>2021-09-11T09:53:05.000Z</time>
      </trkpt>
      <trkpt lat="51.593259" lon="-2.088962">
        <ele>90.822502</ele>
        <time>2021-09-11T09:53:11.000Z</time>
      </trkpt>
      <trkpt lat="51.59293" lon="-2.088978">
        <ele>91.018816</ele>
        <time>2021-09-11T09:53:15.000Z</time>
      </trkpt>
      <trkpt lat="51.592607" lon="-2.089009">
        <ele>91.138461</ele>
        <time>2021-09-11T09:53:19.000Z</time>
      </trkpt>
      <trkpt lat="51.59227" lon="-2.089048">
        <ele>91.259237</ele>
        <time>2021-09-11T09:53:23.000Z</time>
      </trkpt>
      <trkpt lat="51.591931" lon="-2.089089">
        <ele>91.378487</ele>
        <time>2021-09-11T09:53:27.000Z</time>
      </trkpt>
      <trkpt lat="51.591754" lon="-2.089076">
        <ele>91.442359</ele>
        <time>2021-09-11T09:53:29.000Z</time>
      </trkpt>
      <trkpt lat="51.591346" lon="-2.089121">
        <ele>91.583511</ele>
        <time>2021-09-11T09:53:34.000Z</time>
      </trkpt>
      <trkpt lat="51.591269" lon="-2.08904">
        <ele>91.502799</ele>
        <time>2021-09-11T09:53:35.000Z</time>
      </trkpt>
      <trkpt lat="51.591148" lon="-2.088917">
        <ele>91.392474</ele>
        <time>2021-09-11T09:53:37.000Z</time>
      </trkpt>
      <trkpt lat="51.591153" lon="-2.08888">
        <ele>91.372789</ele>
        <time>2021-09-11T09:53:37.000Z</time>
      </trkpt>
      <trkpt lat="51.591127" lon="-2.088474">
        <ele>91.160473</ele>
        <time>2021-09-11T09:53:40.000Z</time>
      </trkpt>
      <trkpt lat="51.591139" lon="-2.088227">
        <ele>91.02886</ele>
        <time>2021-09-11T09:53:42.000Z</time>
      </trkpt>
      <trkpt lat="51.591192" lon="-2.087883">
        <ele>90.853568</ele>
        <time>2021-09-11T09:53:44.000Z</time>
      </trkpt>
      <trkpt lat="51.591256" lon="-2.087215">
        <ele>90.507222</ele>
        <time>2021-09-11T09:53:49.000Z</time>
      </trkpt>
      <trkpt lat="51.591574" lon="-2.084452">
        <ele>88.005197</ele>
        <time>2021-09-11T09:54:08.000Z</time>
      </trkpt>
      <trkpt lat="51.591724" lon="-2.083865">
        <ele>87.35601</ele>
        <time>2021-09-11T09:54:12.000Z</time>
      </trkpt>
      <trkpt lat="51.591927" lon="-2.083214">
        <ele>86.438959</ele>
        <time>2021-09-11T09:54:17.000Z</time>
      </trkpt>
      <trkpt lat="51.592356" lon="-2.081216">
        <ele>83.653553</ele>
        <time>2021-09-11T09:54:32.000Z</time>
      </trkpt>
      <trkpt lat="51.592711" lon="-2.080033">
        <ele>82.63011</ele>
        <time>2021-09-11T09:54:41.000Z</time>
      </trkpt>
      <trkpt lat="51.593639" lon="-2.077971">
        <ele>81.923567</ele>
        <time>2021-09-11T09:54:59.000Z</time>
      </trkpt>
      <trkpt lat="51.593651" lon="-2.077903">
        <ele>81.974381</ele>
        <time>2021-09-11T09:54:59.000Z</time>
      </trkpt>
      <trkpt lat="51.593664" lon="-2.077847">
        <ele>82.017661</ele>
        <time>2021-09-11T09:54:59.000Z</time>
      </trkpt>
      <trkpt lat="51.593426" lon="-2.076825">
        <ele>82.792769</ele>
        <time>2021-09-11T09:55:07.000Z</time>
      </trkpt>
      <trkpt lat="51.593445" lon="-2.075618">
        <ele>83.748708</ele>
        <time>2021-09-11T09:55:15.000Z</time>
      </trkpt>
      <trkpt lat="51.593584" lon="-2.074144">
        <ele>85.359489</ele>
        <time>2021-09-11T09:55:25.000Z</time>
      </trkpt>
      <trkpt lat="51.593956" lon="-2.072116">
        <ele>86.795102</ele>
        <time>2021-09-11T09:55:40.000Z</time>
      </trkpt>
      <trkpt lat="51.594078" lon="-2.07103">
        <ele>86.940637</ele>
        <time>2021-09-11T09:55:48.000Z</time>
      </trkpt>
      <trkpt lat="51.594634" lon="-2.067932">
        <ele>85.856649</ele>
        <time>2021-09-11T09:56:10.000Z</time>
      </trkpt>
      <trkpt lat="51.594797" lon="-2.066712">
        <ele>85.121448</ele>
        <time>2021-09-11T09:56:19.000Z</time>
      </trkpt>
      <trkpt lat="51.595154" lon="-2.064462">
        <ele>83.634453</ele>
        <time>2021-09-11T09:56:35.000Z</time>
      </trkpt>
      <trkpt lat="51.595294" lon="-2.064098">
        <ele>83.449942</ele>
        <time>2021-09-11T09:56:38.000Z</time>
      </trkpt>
      <trkpt lat="51.595878" lon="-2.063448">
        <ele>82.965454</ele>
        <time>2021-09-11T09:56:46.000Z</time>
      </trkpt>
      <trkpt lat="51.596154" lon="-2.06301">
        <ele>82.707883</ele>
        <time>2021-09-11T09:56:50.000Z</time>
      </trkpt>
      <trkpt lat="51.596312" lon="-2.062574">
        <ele>82.487353</ele>
        <time>2021-09-11T09:56:53.000Z</time>
      </trkpt>
      <trkpt lat="51.596378" lon="-2.062024">
        <ele>82.49604</ele>
        <time>2021-09-11T09:56:57.000Z</time>
      </trkpt>
      <trkpt lat="51.596367" lon="-2.061401">
        <ele>82.54788</ele>
        <time>2021-09-11T09:57:01.000Z</time>
      </trkpt>
      <trkpt lat="51.596294" lon="-2.060984">
        <ele>82.585908</ele>
        <time>2021-09-11T09:57:04.000Z</time>
      </trkpt>
      <trkpt lat="51.596338" lon="-2.060189">
        <ele>82.653601</ele>
        <time>2021-09-11T09:57:10.000Z</time>
      </trkpt>
      <trkpt lat="51.596479" lon="-2.059784">
        <ele>82.693671</ele>
        <time>2021-09-11T09:57:13.000Z</time>
      </trkpt>
      <trkpt lat="51.596949" lon="-2.058899">
        <ele>83.909628</ele>
        <time>2021-09-11T09:57:21.000Z</time>
      </trkpt>
      <trkpt lat="51.597443" lon="-2.058135">
        <ele>85.159395</ele>
        <time>2021-09-11T09:57:29.000Z</time>
      </trkpt>
      <trkpt lat="51.597719" lon="-2.057699">
        <ele>85.873276</ele>
        <time>2021-09-11T09:57:33.000Z</time>
      </trkpt>
      <trkpt lat="51.598451" lon="-2.056601">
        <ele>87.800715</ele>
        <time>2021-09-11T09:57:44.000Z</time>
      </trkpt>
      <trkpt lat="51.598724" lon="-2.05617">
        <ele>88.565382</ele>
        <time>2021-09-11T09:57:48.000Z</time>
      </trkpt>
      <trkpt lat="51.598909" lon="-2.055988">
        <ele>88.977288</ele>
        <time>2021-09-11T09:57:50.000Z</time>
      </trkpt>
      <trkpt lat="51.599022" lon="-2.055924">
        <ele>89.218171</ele>
        <time>2021-09-11T09:57:51.000Z</time>
      </trkpt>
      <trkpt lat="51.599099" lon="-2.055856">
        <ele>89.403016</ele>
        <time>2021-09-11T09:57:52.000Z</time>
      </trkpt>
      <trkpt lat="51.599157" lon="-2.055715">
        <ele>89.52487</ele>
        <time>2021-09-11T09:57:53.000Z</time>
      </trkpt>
      <trkpt lat="51.599181" lon="-2.055066">
        <ele>89.774735</ele>
        <time>2021-09-11T09:57:57.000Z</time>
      </trkpt>
      <trkpt lat="51.599168" lon="-2.054266">
        <ele>90.083936</ele>
        <time>2021-09-11T09:58:03.000Z</time>
      </trkpt>
      <trkpt lat="51.599139" lon="-2.053473">
        <ele>90.387703</ele>
        <time>2021-09-11T09:58:08.000Z</time>
      </trkpt>
      <trkpt lat="51.599103" lon="-2.05129">
        <ele>90.554296</ele>
        <time>2021-09-11T09:58:23.000Z</time>
      </trkpt>
      <trkpt lat="51.599255" lon="-2.050016">
        <ele>90.470302</ele>
        <time>2021-09-11T09:58:32.000Z</time>
      </trkpt>
      <trkpt lat="51.599385" lon="-2.049447">
        <ele>89.579574</ele>
        <time>2021-09-11T09:58:36.000Z</time>
      </trkpt>
      <trkpt lat="51.599539" lon="-2.048938">
        <ele>88.739577</ele>
        <time>2021-09-11T09:58:40.000Z</time>
      </trkpt>
      <trkpt lat="51.600204" lon="-2.047121">
        <ele>85.615955</ele>
        <time>2021-09-11T09:58:55.000Z</time>
      </trkpt>
      <trkpt lat="51.600466" lon="-2.0464">
        <ele>84.292905</ele>
        <time>2021-09-11T09:59:01.000Z</time>
      </trkpt>
      <trkpt lat="51.600617" lon="-2.045982">
        <ele>83.515351</ele>
        <time>2021-09-11T09:59:04.000Z</time>
      </trkpt>
      <trkpt lat="51.600636" lon="-2.045896">
        <ele>83.384838</ele>
        <time>2021-09-11T09:59:05.000Z</time>
      </trkpt>
      <trkpt lat="51.600667" lon="-2.045748">
        <ele>83.131358</ele>
        <time>2021-09-11T09:59:06.000Z</time>
      </trkpt>
      <trkpt lat="51.600705" lon="-2.045224">
        <ele>82.3079</ele>
        <time>2021-09-11T09:59:10.000Z</time>
      </trkpt>
      <trkpt lat="51.600736" lon="-2.045059">
        <ele>82.026498</ele>
        <time>2021-09-11T09:59:11.000Z</time>
      </trkpt>
      <trkpt lat="51.60066" lon="-2.040504">
        <ele>80.792995</ele>
        <time>2021-09-11T09:59:42.000Z</time>
      </trkpt>
      <trkpt lat="51.600587" lon="-2.039451">
        <ele>80.900362</ele>
        <time>2021-09-11T09:59:49.000Z</time>
      </trkpt>
      <trkpt lat="51.600558" lon="-2.038594">
        <ele>81.198215</ele>
        <time>2021-09-11T09:59:55.000Z</time>
      </trkpt>
      <trkpt lat="51.600616" lon="-2.037901">
        <ele>81.597007</ele>
        <time>2021-09-11T10:00:00.000Z</time>
      </trkpt>
      <trkpt lat="51.600662" lon="-2.037143">
        <ele>82.022944</ele>
        <time>2021-09-11T10:00:05.000Z</time>
      </trkpt>
      <trkpt lat="51.601185" lon="-2.034891">
        <ele>83.085303</ele>
        <time>2021-09-11T10:00:22.000Z</time>
      </trkpt>
      <trkpt lat="51.601368" lon="-2.0341">
        <ele>83.390167</ele>
        <time>2021-09-11T10:00:28.000Z</time>
      </trkpt>
      <trkpt lat="51.601778" lon="-2.032322">
        <ele>84.242816</ele>
        <time>2021-09-11T10:00:41.000Z</time>
      </trkpt>
      <trkpt lat="51.601988" lon="-2.031354">
        <ele>84.757633</ele>
        <time>2021-09-11T10:00:48.000Z</time>
      </trkpt>
      <trkpt lat="51.602159" lon="-2.030435">
        <ele>85.701052</ele>
        <time>2021-09-11T10:00:55.000Z</time>
      </trkpt>
      <trkpt lat="51.602275" lon="-2.029828">
        <ele>86.853042</ele>
        <time>2021-09-11T10:00:59.000Z</time>
      </trkpt>
      <trkpt lat="51.602517" lon="-2.027997">
        <ele>90.196994</ele>
        <time>2021-09-11T10:01:12.000Z</time>
      </trkpt>
      <trkpt lat="51.602696" lon="-2.025851">
        <ele>93.723975</ele>
        <time>2021-09-11T10:01:27.000Z</time>
      </trkpt>
      <trkpt lat="51.602882" lon="-2.023771">
        <ele>95.824689</ele>
        <time>2021-09-11T10:01:42.000Z</time>
      </trkpt>
      <trkpt lat="51.603034" lon="-2.022789">
        <ele>96.4712</ele>
        <time>2021-09-11T10:01:49.000Z</time>
      </trkpt>
      <trkpt lat="51.603358" lon="-2.020952">
        <ele>98.197648</ele>
        <time>2021-09-11T10:02:02.000Z</time>
      </trkpt>
      <trkpt lat="51.603422" lon="-2.020278">
        <ele>98.898948</ele>
        <time>2021-09-11T10:02:07.000Z</time>
      </trkpt>
      <trkpt lat="51.603475" lon="-2.019823">
        <ele>99.363222</ele>
        <time>2021-09-11T10:02:10.000Z</time>
      </trkpt>
      <trkpt lat="51.603413" lon="-2.018199">
        <ele>102.097571</ele>
        <time>2021-09-11T10:02:21.000Z</time>
      </trkpt>
      <trkpt lat="51.603241" lon="-2.016984">
        <ele>104.409321</ele>
        <time>2021-09-11T10:02:30.000Z</time>
      </trkpt>
      <trkpt lat="51.602783" lon="-2.014851">
        <ele>107.704032</ele>
        <time>2021-09-11T10:02:46.000Z</time>
      </trkpt>
      <trkpt lat="51.602764" lon="-2.01452">
        <ele>108.144208</ele>
        <time>2021-09-11T10:02:48.000Z</time>
      </trkpt>
      <trkpt lat="51.602751" lon="-2.014165">
        <ele>108.639322</ele>
        <time>2021-09-11T10:02:50.000Z</time>
      </trkpt>
      <trkpt lat="51.602915" lon="-2.013156">
        <ele>109.668912</ele>
        <time>2021-09-11T10:02:57.000Z</time>
      </trkpt>
      <trkpt lat="51.602883" lon="-2.01262">
        <ele>110.106103</ele>
        <time>2021-09-11T10:03:01.000Z</time>
      </trkpt>
      <trkpt lat="51.602604" lon="-2.010657">
        <ele>111.908898</ele>
        <time>2021-09-11T10:03:15.000Z</time>
      </trkpt>
      <trkpt lat="51.601321" lon="-2.005893">
        <ele>118.600213</ele>
        <time>2021-09-11T10:03:51.000Z</time>
      </trkpt>
      <trkpt lat="51.600135" lon="-1.996564">
        <ele>123.610251</ele>
        <time>2021-09-11T10:04:57.000Z</time>
      </trkpt>
      <trkpt lat="51.600028" lon="-1.995472">
        <ele>123.270088</ele>
        <time>2021-09-11T10:05:05.000Z</time>
      </trkpt>
      <trkpt lat="51.600032" lon="-1.99495">
        <ele>123.110633</ele>
        <time>2021-09-11T10:05:09.000Z</time>
      </trkpt>
      <trkpt lat="51.600053" lon="-1.994603">
        <ele>123.002782</ele>
        <time>2021-09-11T10:05:11.000Z</time>
      </trkpt>
      <trkpt lat="51.600171" lon="-1.993393">
        <ele>121.615609</ele>
        <time>2021-09-11T10:05:19.000Z</time>
      </trkpt>
      <trkpt lat="51.600327" lon="-1.992185">
        <ele>119.842729</ele>
        <time>2021-09-11T10:05:28.000Z</time>
      </trkpt>
      <trkpt lat="51.600442" lon="-1.991339">
        <ele>118.580775</ele>
        <time>2021-09-11T10:05:34.000Z</time>
      </trkpt>
      <trkpt lat="51.601068" lon="-1.988252">
        <ele>114.131079</ele>
        <time>2021-09-11T10:05:56.000Z</time>
      </trkpt>
      <trkpt lat="51.601122" lon="-1.988053">
        <ele>113.986972</ele>
        <time>2021-09-11T10:05:57.000Z</time>
      </trkpt>
      <trkpt lat="51.60276" lon="-1.983362">
        <ele>112.066312</ele>
        <time>2021-09-11T10:06:34.000Z</time>
      </trkpt>
      <trkpt lat="51.602965" lon="-1.982802">
        <ele>112.594264</ele>
        <time>2021-09-11T10:06:38.000Z</time>
      </trkpt>
      <trkpt lat="51.603026" lon="-1.982625">
        <ele>112.763558</ele>
        <time>2021-09-11T10:06:39.000Z</time>
      </trkpt>
      <trkpt lat="51.605004" lon="-1.977126">
        <ele>117.49461</ele>
        <time>2021-09-11T10:07:23.000Z</time>
      </trkpt>
      <trkpt lat="51.605201" lon="-1.97673">
        <ele>117.781347</ele>
        <time>2021-09-11T10:07:27.000Z</time>
      </trkpt>
      <trkpt lat="51.60587" lon="-1.975777">
        <ele>117.396221</ele>
        <time>2021-09-11T10:07:37.000Z</time>
      </trkpt>
      <trkpt lat="51.606219" lon="-1.975119">
        <ele>116.480441</ele>
        <time>2021-09-11T10:07:43.000Z</time>
      </trkpt>
      <trkpt lat="51.606979" lon="-1.973483">
        <ele>113.645659</ele>
        <time>2021-09-11T10:07:57.000Z</time>
      </trkpt>
      <trkpt lat="51.607855" lon="-1.971346">
        <ele>108.95856</ele>
        <time>2021-09-11T10:08:15.000Z</time>
      </trkpt>
      <trkpt lat="51.608073" lon="-1.970964">
        <ele>108.261671</ele>
        <time>2021-09-11T10:08:19.000Z</time>
      </trkpt>
      <trkpt lat="51.610027" lon="-1.968301">
        <ele>103.714843</ele>
        <time>2021-09-11T10:08:47.000Z</time>
      </trkpt>
      <trkpt lat="51.610264" lon="-1.967912">
        <ele>103.237032</ele>
        <time>2021-09-11T10:08:51.000Z</time>
      </trkpt>
      <trkpt lat="51.610411" lon="-1.96753">
        <ele>102.927299</ele>
        <time>2021-09-11T10:08:54.000Z</time>
      </trkpt>
      <trkpt lat="51.610505" lon="-1.967086">
        <ele>102.702876</ele>
        <time>2021-09-11T10:08:57.000Z</time>
      </trkpt>
      <trkpt lat="51.610813" lon="-1.963499">
        <ele>100.384174</ele>
        <time>2021-09-11T10:09:22.000Z</time>
      </trkpt>
      <trkpt lat="51.610883" lon="-1.962994">
        <ele>99.920467</ele>
        <time>2021-09-11T10:09:26.000Z</time>
      </trkpt>
      <trkpt lat="51.61105" lon="-1.962068">
        <ele>99.038678</ele>
        <time>2021-09-11T10:09:33.000Z</time>
      </trkpt>
      <trkpt lat="51.611654" lon="-1.959836">
        <ele>96.120315</ele>
        <time>2021-09-11T10:09:50.000Z</time>
      </trkpt>
      <trkpt lat="51.611959" lon="-1.958736">
        <ele>95.327586</ele>
        <time>2021-09-11T10:09:58.000Z</time>
      </trkpt>
      <trkpt lat="51.612194" lon="-1.959055">
        <ele>95.152539</ele>
        <time>2021-09-11T10:10:01.000Z</time>
      </trkpt>
      <trkpt lat="51.61241" lon="-1.959327">
        <ele>94.995504</ele>
        <time>2021-09-11T10:10:04.000Z</time>
      </trkpt>
      <trkpt lat="51.612585" lon="-1.959561">
        <ele>94.858062</ele>
        <time>2021-09-11T10:10:07.000Z</time>
      </trkpt>
      <trkpt lat="51.613656" lon="-1.960911">
        <ele>94.887781</ele>
        <time>2021-09-11T10:10:22.000Z</time>
      </trkpt>
      <trkpt lat="51.61381" lon="-1.9611">
        <ele>94.967294</ele>
        <time>2021-09-11T10:10:24.000Z</time>
      </trkpt>
      <trkpt lat="51.614795" lon="-1.962343">
        <ele>95.772109</ele>
        <time>2021-09-11T10:10:38.000Z</time>
      </trkpt>
      <trkpt lat="51.615557" lon="-1.963339">
        <ele>96.786423</ele>
        <time>2021-09-11T10:10:49.000Z</time>
      </trkpt>
      <trkpt lat="51.615638" lon="-1.963473">
        <ele>96.903169</ele>
        <time>2021-09-11T10:10:50.000Z</time>
      </trkpt>
      <trkpt lat="51.615655" lon="-1.963517">
        <ele>96.936212</ele>
        <time>2021-09-11T10:10:50.000Z</time>
      </trkpt>
      <trkpt lat="51.615617" lon="-1.963821">
        <ele>97.134205</ele>
        <time>2021-09-11T10:10:52.000Z</time>
      </trkpt>
      <trkpt lat="51.615376" lon="-1.964605">
        <ele>97.476338</ele>
        <time>2021-09-11T10:10:58.000Z</time>
      </trkpt>
      <trkpt lat="51.616453" lon="-1.96583">
        <ele>98.195221</ele>
        <time>2021-09-11T10:11:13.000Z</time>
      </trkpt>
      <trkpt lat="51.616543" lon="-1.965942">
        <ele>98.119872</ele>
        <time>2021-09-11T10:11:14.000Z</time>
      </trkpt>
      <trkpt lat="51.617247" lon="-1.966699">
        <ele>97.56017</ele>
        <time>2021-09-11T10:11:23.000Z</time>
      </trkpt>
      <trkpt lat="51.61745" lon="-1.966839">
        <ele>97.404733</ele>
        <time>2021-09-11T10:11:25.000Z</time>
      </trkpt>
      <trkpt lat="51.617847" lon="-1.967091">
        <ele>97.117265</ele>
        <time>2021-09-11T10:11:30.000Z</time>
      </trkpt>
      <trkpt lat="51.618331" lon="-1.96706">
        <ele>96.654081</ele>
        <time>2021-09-11T10:11:35.000Z</time>
      </trkpt>
      <trkpt lat="51.618633" lon="-1.966897">
        <ele>96.344147</ele>
        <time>2021-09-11T10:11:39.000Z</time>
      </trkpt>
      <trkpt lat="51.619137" lon="-1.966639">
        <ele>95.789893</ele>
        <time>2021-09-11T10:11:45.000Z</time>
      </trkpt>
      <trkpt lat="51.619632" lon="-1.966347">
        <ele>95.260048</ele>
        <time>2021-09-11T10:11:51.000Z</time>
      </trkpt>
      <trkpt lat="51.619857" lon="-1.966349">
        <ele>95.010765</ele>
        <time>2021-09-11T10:11:54.000Z</time>
      </trkpt>
      <trkpt lat="51.620379" lon="-1.966591">
        <ele>94.435093</ele>
        <time>2021-09-11T10:12:00.000Z</time>
      </trkpt>
      <trkpt lat="51.620824" lon="-1.96685">
        <ele>93.91509</ele>
        <time>2021-09-11T10:12:05.000Z</time>
      </trkpt>
      <trkpt lat="51.620831" lon="-1.966853">
        <ele>93.899014</ele>
        <time>2021-09-11T10:12:05.000Z</time>
      </trkpt>
      <trkpt lat="51.621297" lon="-1.96712">
        <ele>93.370959</ele>
        <time>2021-09-11T10:12:11.000Z</time>
      </trkpt>
      <trkpt lat="51.62175" lon="-1.965941">
        <ele>92.27103</ele>
        <time>2021-09-11T10:12:21.000Z</time>
      </trkpt>
      <trkpt lat="51.622314" lon="-1.964458">
        <ele>90.882616</ele>
        <time>2021-09-11T10:12:33.000Z</time>
      </trkpt>
      <trkpt lat="51.62231" lon="-1.96444">
        <ele>90.875275</ele>
        <time>2021-09-11T10:12:33.000Z</time>
      </trkpt>
      <trkpt lat="51.622648" lon="-1.963754">
        <ele>90.341002</ele>
        <time>2021-09-11T10:12:39.000Z</time>
      </trkpt>
      <trkpt lat="51.623737" lon="-1.962259">
        <ele>89.00007</ele>
        <time>2021-09-11T10:12:55.000Z</time>
      </trkpt>
      <trkpt lat="51.624065" lon="-1.961643">
        <ele>88.663467</ele>
        <time>2021-09-11T10:13:01.000Z</time>
      </trkpt>
      <trkpt lat="51.624474" lon="-1.960784">
        <ele>88.227045</ele>
        <time>2021-09-11T10:13:08.000Z</time>
      </trkpt>
      <trkpt lat="51.624797" lon="-1.959847">
        <ele>87.800076</ele>
        <time>2021-09-11T10:13:15.000Z</time>
      </trkpt>
      <trkpt lat="51.625048" lon="-1.959011">
        <ele>87.43758</ele>
        <time>2021-09-11T10:13:21.000Z</time>
      </trkpt>
      <trkpt lat="51.625102" lon="-1.958819">
        <ele>87.355289</ele>
        <time>2021-09-11T10:13:22.000Z</time>
      </trkpt>
      <trkpt lat="51.625512" lon="-1.957104">
        <ele>86.665517</ele>
        <time>2021-09-11T10:13:35.000Z</time>
      </trkpt>
      <trkpt lat="51.625677" lon="-1.956339">
        <ele>86.396579</ele>
        <time>2021-09-11T10:13:41.000Z</time>
      </trkpt>
      <trkpt lat="51.625725" lon="-1.956154">
        <ele>86.332565</ele>
        <time>2021-09-11T10:13:42.000Z</time>
      </trkpt>
      <trkpt lat="51.625899" lon="-1.954586">
        <ele>85.849494</ele>
        <time>2021-09-11T10:13:53.000Z</time>
      </trkpt>
      <trkpt lat="51.626046" lon="-1.954056">
        <ele>85.766083</ele>
        <time>2021-09-11T10:13:57.000Z</time>
      </trkpt>
      <trkpt lat="51.626596" lon="-1.953086">
        <ele>85.577631</ele>
        <time>2021-09-11T10:14:06.000Z</time>
      </trkpt>
      <trkpt lat="51.626756" lon="-1.952584">
        <ele>85.495518</ele>
        <time>2021-09-11T10:14:10.000Z</time>
      </trkpt>
      <trkpt lat="51.627034" lon="-1.951726">
        <ele>85.454972</ele>
        <time>2021-09-11T10:14:17.000Z</time>
      </trkpt>
      <trkpt lat="51.627093" lon="-1.951139">
        <ele>85.446819</ele>
        <time>2021-09-11T10:14:21.000Z</time>
      </trkpt>
      <trkpt lat="51.6273" lon="-1.950302">
        <ele>85.434433</ele>
        <time>2021-09-11T10:14:27.000Z</time>
      </trkpt>
      <trkpt lat="51.628293" lon="-1.94782">
        <ele>85.468956</ele>
        <time>2021-09-11T10:14:47.000Z</time>
      </trkpt>
      <trkpt lat="51.628772" lon="-1.946603">
        <ele>85.332588</ele>
        <time>2021-09-11T10:14:57.000Z</time>
      </trkpt>
      <trkpt lat="51.629952" lon="-1.943641">
        <ele>84.720059</ele>
        <time>2021-09-11T10:15:21.000Z</time>
      </trkpt>
      <trkpt lat="51.63027" lon="-1.943246">
        <ele>84.607342</ele>
        <time>2021-09-11T10:15:25.000Z</time>
      </trkpt>
      <trkpt lat="51.634138" lon="-1.941106">
        <ele>84.210177</ele>
        <time>2021-09-11T10:16:10.000Z</time>
      </trkpt>
      <trkpt lat="51.637448" lon="-1.939276">
        <ele>84.114847</ele>
        <time>2021-09-11T10:16:49.000Z</time>
      </trkpt>
      <trkpt lat="51.637776" lon="-1.939187">
        <ele>84.172862</ele>
        <time>2021-09-11T10:16:53.000Z</time>
      </trkpt>
      <trkpt lat="51.638041" lon="-1.938928">
        <ele>84.246762</ele>
        <time>2021-09-11T10:16:56.000Z</time>
      </trkpt>
      <trkpt lat="51.63843" lon="-1.939146">
        <ele>84.342871</ele>
        <time>2021-09-11T10:17:01.000Z</time>
      </trkpt>
      <trkpt lat="51.639283" lon="-1.939574">
        <ele>84.584493</ele>
        <time>2021-09-11T10:17:11.000Z</time>
      </trkpt>
      <trkpt lat="51.640332" lon="-1.939952">
        <ele>85.309442</ele>
        <time>2021-09-11T10:17:23.000Z</time>
      </trkpt>
      <trkpt lat="51.641558" lon="-1.940626">
        <ele>86.159399</ele>
        <time>2021-09-11T10:17:37.000Z</time>
      </trkpt>
      <trkpt lat="51.642084" lon="-1.940916">
        <ele>86.50701</ele>
        <time>2021-09-11T10:17:43.000Z</time>
      </trkpt>
      <trkpt lat="51.642358" lon="-1.941068">
        <ele>86.686862</ele>
        <time>2021-09-11T10:17:46.000Z</time>
      </trkpt>
      <trkpt lat="51.642971" lon="-1.94142">
        <ele>86.949101</ele>
        <time>2021-09-11T10:17:53.000Z</time>
      </trkpt>
      <trkpt lat="51.643226" lon="-1.941567">
        <ele>87.003851</ele>
        <time>2021-09-11T10:17:56.000Z</time>
      </trkpt>
      <trkpt lat="51.643474" lon="-1.941704">
        <ele>87.059976</ele>
        <time>2021-09-11T10:17:59.000Z</time>
      </trkpt>
      <trkpt lat="51.643621" lon="-1.941759">
        <ele>87.089093</ele>
        <time>2021-09-11T10:18:01.000Z</time>
      </trkpt>
      <trkpt lat="51.64374" lon="-1.941785">
        <ele>87.113597</ele>
        <time>2021-09-11T10:18:02.000Z</time>
      </trkpt>
      <trkpt lat="51.644426" lon="-1.94174">
        <ele>87.260148</ele>
        <time>2021-09-11T10:18:10.000Z</time>
      </trkpt>
      <trkpt lat="51.64562" lon="-1.942082">
        <ele>87.768104</ele>
        <time>2021-09-11T10:18:23.000Z</time>
      </trkpt>
      <trkpt lat="51.645899" lon="-1.942102">
        <ele>87.889891</ele>
        <time>2021-09-11T10:18:26.000Z</time>
      </trkpt>
      <trkpt lat="51.64615" lon="-1.942092">
        <ele>87.993439</ele>
        <time>2021-09-11T10:18:29.000Z</time>
      </trkpt>
      <trkpt lat="51.646419" lon="-1.94206">
        <ele>88.274402</ele>
        <time>2021-09-11T10:18:32.000Z</time>
      </trkpt>
      <trkpt lat="51.646473" lon="-1.942024">
        <ele>88.340327</ele>
        <time>2021-09-11T10:18:33.000Z</time>
      </trkpt>
      <trkpt lat="51.647099" lon="-1.941773">
        <ele>89.084534</ele>
        <time>2021-09-11T10:18:40.000Z</time>
      </trkpt>
      <trkpt lat="51.647139" lon="-1.941753">
        <ele>89.135389</ele>
        <time>2021-09-11T10:18:40.000Z</time>
      </trkpt>
      <trkpt lat="51.647498" lon="-1.941595">
        <ele>89.542408</ele>
        <time>2021-09-11T10:18:44.000Z</time>
      </trkpt>
      <trkpt lat="51.647674" lon="-1.941555">
        <ele>89.764825</ele>
        <time>2021-09-11T10:18:46.000Z</time>
      </trkpt>
      <trkpt lat="51.647787" lon="-1.941535">
        <ele>89.876072</ele>
        <time>2021-09-11T10:18:47.000Z</time>
      </trkpt>
      <trkpt lat="51.648207" lon="-1.941544">
        <ele>90.312151</ele>
        <time>2021-09-11T10:18:52.000Z</time>
      </trkpt>
      <trkpt lat="51.64831" lon="-1.941548">
        <ele>90.415307</ele>
        <time>2021-09-11T10:18:53.000Z</time>
      </trkpt>
      <trkpt lat="51.649083" lon="-1.941558">
        <ele>91.173967</ele>
        <time>2021-09-11T10:19:02.000Z</time>
      </trkpt>
      <trkpt lat="51.649706" lon="-1.941469">
        <ele>91.773482</ele>
        <time>2021-09-11T10:19:09.000Z</time>
      </trkpt>
      <trkpt lat="51.650284" lon="-1.941229">
        <ele>91.933424</ele>
        <time>2021-09-11T10:19:16.000Z</time>
      </trkpt>
      <trkpt lat="51.650428" lon="-1.940993">
        <ele>91.977791</ele>
        <time>2021-09-11T10:19:18.000Z</time>
      </trkpt>
      <trkpt lat="51.650862" lon="-1.940284">
        <ele>92.108496</ele>
        <time>2021-09-11T10:19:25.000Z</time>
      </trkpt>
      <trkpt lat="51.65112" lon="-1.939833">
        <ele>92.189992</ele>
        <time>2021-09-11T10:19:29.000Z</time>
      </trkpt>
      <trkpt lat="51.651209" lon="-1.939642">
        <ele>92.15064</ele>
        <time>2021-09-11T10:19:31.000Z</time>
      </trkpt>
      <trkpt lat="51.651503" lon="-1.93931">
        <ele>92.003827</ele>
        <time>2021-09-11T10:19:35.000Z</time>
      </trkpt>
      <trkpt lat="51.651653" lon="-1.939155">
        <ele>91.933415</ele>
        <time>2021-09-11T10:19:37.000Z</time>
      </trkpt>
      <trkpt lat="51.651817" lon="-1.939077">
        <ele>91.863766</ele>
        <time>2021-09-11T10:19:39.000Z</time>
      </trkpt>
      <trkpt lat="51.651847" lon="-1.93906">
        <ele>91.848983</ele>
        <time>2021-09-11T10:19:39.000Z</time>
      </trkpt>
      <trkpt lat="51.652001" lon="-1.939054">
        <ele>91.785366</ele>
        <time>2021-09-11T10:19:41.000Z</time>
      </trkpt>
      <trkpt lat="51.652242" lon="-1.939041">
        <ele>91.685224</ele>
        <time>2021-09-11T10:19:44.000Z</time>
      </trkpt>
      <trkpt lat="51.652464" lon="-1.93902">
        <ele>91.595366</ele>
        <time>2021-09-11T10:19:46.000Z</time>
      </trkpt>
      <trkpt lat="51.652698" lon="-1.939011">
        <ele>91.501822</ele>
        <time>2021-09-11T10:19:49.000Z</time>
      </trkpt>
      <trkpt lat="51.653461" lon="-1.939117">
        <ele>90.794705</ele>
        <time>2021-09-11T10:19:58.000Z</time>
      </trkpt>
      <trkpt lat="51.653614" lon="-1.939096">
        <ele>90.63087</ele>
        <time>2021-09-11T10:20:00.000Z</time>
      </trkpt>
      <trkpt lat="51.653961" lon="-1.939076">
        <ele>90.292148</ele>
        <time>2021-09-11T10:20:04.000Z</time>
      </trkpt>
      <trkpt lat="51.654248" lon="-1.939052">
        <ele>89.99434</ele>
        <time>2021-09-11T10:20:07.000Z</time>
      </trkpt>
      <trkpt lat="51.654476" lon="-1.939041">
        <ele>89.765283</ele>
        <time>2021-09-11T10:20:10.000Z</time>
      </trkpt>
      <trkpt lat="51.654588" lon="-1.939069">
        <ele>89.661254</ele>
        <time>2021-09-11T10:20:11.000Z</time>
      </trkpt>
      <trkpt lat="51.655198" lon="-1.939287">
        <ele>89.5670173191</ele>
        <time>2021-09-11T10:20:18.000Z</time>
      </trkpt>
      <trkpt lat="51.655624" lon="-1.939602">
        <ele>89.4963284225</ele>
        <time>2021-09-11T10:20:23.000Z</time>
      </trkpt>
      <trkpt lat="51.655767" lon="-1.939697">
        <ele>89.4730006497</ele>
        <time>2021-09-11T10:20:25.000Z</time>
      </trkpt>
      <trkpt lat="51.65611" lon="-1.939914">
        <ele>89.4174261703</ele>
        <time>2021-09-11T10:20:29.000Z</time>
      </trkpt>
    </trkseg>
  </trk>
</gpx>

<!--
Performance optimized by W3 Total Cache. Learn more: https://www.boldgrid.com/w3-total-cache/?utm_source=w3tc&utm_medium=footer_comment&utm_campaign=free_plugin

Page Caching using Disk: Enhanced{w3tc_pagecache_reject_reason} 

Served from: www.aquabike.world @ 2026-05-10 15:23:19 by W3 Total Cache
-->